Lake Hughes, CA (93532)

11:04 PM PDT on October 01, 2014 (GMT -0700)
TWDY | Change Station
CLOSE
Current Station
Personal Weather Station
Location: Lake Hughes, CA
Elevation: 3885 ft
Nearby Weather Stations

Elev 3885 ft 34.72 °N, 118.59 °W | Updated 12 minutes ago

Clear
Clear
52.5 °F
Feels Like 52.5 °F
N
1.0
Wind Variable Wind from SSE
Gusts 2.0 mph

Today
High -- | Low -- °F
--% Chance of Precip.
Yesterday
High -- | Low -- °F
Precip. -- in
6:48 AM 6:38 PM
First Quarter, 55% visible
Pressure 29.97 in
Visibility 10.0 miles
Clouds Clear
Dew Point 29 °F
Humidity 41%
Rainfall 0.00 in
Snow Depth 1 in , 0 in , 0 in
UV 0 out of 12
Pollen 5.50 out of 12
Ozone Good
PM2.5 Good
Flu Activity Not available.
METAR KSDB 020548Z AUTO 00000KT 10SM CLR 19/M02 A3012 RMK AO2 SLP147 T01891022 10261 20189 51020 $

More Conditions Fewer Conditions

Pressure 29.97 in
Visibility 10.0 miles
Clouds Clear
Dew Point 29 °F
Humidity 41%
Rainfall 0.00 in
Snow Depth 1 in , 0 in , 0 in
UV 0 out of 12
Pollen 5.50 out of 12
Ozone Good
PM2.5 Good
Flu Activity Not available.
METAR KSDB 020548Z AUTO 00000KT 10SM CLR 19/M02 A3012 RMK AO2 SLP147 T01891022 10261 20189 51020 $

More Conditions Fewer Conditions

10-Day Weather Forecast

Almanac

Astronomy

Oct. 01, 2014 Rise Set
Actual Time 6:48 AM PDT 6:38 PM PDT
Civil Twilight 6:23 AM PDT 7:03 PM PDT
Nautical Twilight 5:54 AM PDT 7:32 PM PDT
Astronomical Twilight 5:25 AM PDT 8:01 PM PDT
Moon 1:43 PM PDT (10/1) No Moon Set
Length of Visible Light 12h 39m
Length of Day
11h 49m
Tomorrow will be 2m 10s shorter.
First Quarter, 55% of the Moon is Illuminated
Oct 2
First Quarter
Oct 8
Full
Oct 15
Last Quarter
Oct 23
New
Oct 30
First Quarter

Yesterday's Extremes

State Highs State Lows

Community

WunderPhotos

Upload Photos

1,758,198 photos uploaded!

Nearby

Air Quality

  Air Quality AQ Index Pollutant
Yesterday Moderate
OZONE
Yesterday Good
PM2.5
Current Good
PM2.5
Current Good
OZONE
Thursday Moderate
PM10
Thursday Moderate
OZONE
Thursday Good
CO
Thursday Good
NO2

Snow Depth

Station Depth Elevation
Leavitt Meadows 1 in 7200 ft
Poison Flat 0 in 7900 ft
Fallen Leaf 0 in 6300 ft
Monitor Pass 1 in 8350 ft
Adin Mountain 0 in 6200 ft

Earthquake Activity

City Distance Mag. Time & Date
Avalon, California 107 miles 3.2 10:12 PM PDT
2014-10-01
Shandon, California 126 miles 2.9 5:34 PM PDT
2014-09-30
Avalon, California 107 miles 2.6 1:28 PM PDT
2014-09-30
Minimum magnitude displayed is 2.5.

Coastal Water Temperatures

Place Temperature
No Stations Reporting

Nearby Weather Stations